sensor_id;sensor_type;location;lat;lon;timestamp;P1;durP1;ratioP1;P2;durP2;ratioP2
73239;SDS011;61452;40.054;4.110;2023-02-22T00:03:05;1.02;;;0.73;;
73239;SDS011;61452;40.054;4.110;2023-02-22T00:08:08;1.38;;;0.70;;
73239;SDS011;61452;40.054;4.110;2023-02-22T00:13:11;0.85;;;0.50;;
73239;SDS011;61452;40.054;4.110;2023-02-22T00:18:16;1.20;;;0.88;;
73239;SDS011;61452;40.054;4.110;2023-02-22T00:23:20;0.75;;;0.60;;
73239;SDS011;61452;40.054;4.110;2023-02-22T00:28:24;2.03;;;0.90;;
73239;SDS011;61452;40.054;4.110;2023-02-22T00:33:26;1.83;;;0.70;;
73239;SDS011;61452;40.054;4.110;2023-02-22T00:38:29;1.48;;;0.80;;
73239;SDS011;61452;40.054;4.110;2023-02-22T00:43:32;1.17;;;0.70;;
73239;SDS011;61452;40.054;4.110;2023-02-22T00:48:34;0.75;;;0.68;;
73239;SDS011;61452;40.054;4.110;2023-02-22T00:53:37;1.00;;;0.73;;
73239;SDS011;61452;40.054;4.110;2023-02-22T00:58:39;0.73;;;0.65;;
73239;SDS011;61452;40.054;4.110;2023-02-22T01:03:41;1.30;;;0.63;;
73239;SDS011;61452;40.054;4.110;2023-02-22T01:08:44;1.17;;;0.75;;
73239;SDS011;61452;40.054;4.110;2023-02-22T01:13:47;0.90;;;0.50;;
73239;SDS011;61452;40.054;4.110;2023-02-22T01:18:50;1.02;;;0.73;;
73239;SDS011;61452;40.054;4.110;2023-02-22T01:23:52;1.90;;;0.93;;
73239;SDS011;61452;40.054;4.110;2023-02-22T01:28:55;1.17;;;0.70;;
73239;SDS011;61452;40.054;4.110;2023-02-22T01:33:58;1.63;;;0.70;;
73239;SDS011;61452;40.054;4.110;2023-02-22T01:39:01;1.45;;;0.82;;
73239;SDS011;61452;40.054;4.110;2023-02-22T01:49:42;1.17;;;0.70;;
73239;SDS011;61452;40.054;4.110;2023-02-22T01:54:51;1.00;;;0.60;;
73239;SDS011;61452;40.054;4.110;2023-02-22T02:00:03;1.00;;;0.63;;
73239;SDS011;61452;40.054;4.110;2023-02-22T02:05:14;1.30;;;0.77;;
73239;SDS011;61452;40.054;4.110;2023-02-22T02:10:16;0.95;;;0.63;;
73239;SDS011;61452;40.054;4.110;2023-02-22T02:15:23;1.05;;;0.68;;
73239;SDS011;61452;40.054;4.110;2023-02-22T02:36:54;1.38;;;0.70;;
73239;SDS011;61452;40.054;4.110;2023-02-22T02:42:05;1.35;;;0.80;;
73239;SDS011;61452;40.054;4.110;2023-02-22T02:47:13;1.30;;;0.73;;
73239;SDS011;61452;40.054;4.110;2023-02-22T02:52:23;1.20;;;0.70;;
73239;SDS011;61452;40.054;4.110;2023-02-22T02:57:28;2.00;;;0.80;;
73239;SDS011;61452;40.054;4.110;2023-02-22T03:07:59;1.05;;;0.75;;
73239;SDS011;61452;40.054;4.110;2023-02-22T03:24:15;1.08;;;0.70;;
73239;SDS011;61452;40.054;4.110;2023-02-22T03:29:20;1.00;;;0.75;;
73239;SDS011;61452;40.054;4.110;2023-02-22T03:34:26;0.88;;;0.70;;
73239;SDS011;61452;40.054;4.110;2023-02-22T03:39:35;1.13;;;0.70;;
73239;SDS011;61452;40.054;4.110;2023-02-22T03:44:39;1.40;;;0.80;;
73239;SDS011;61452;40.054;4.110;2023-02-22T03:49:54;1.27;;;0.85;;
73239;SDS011;61452;40.054;4.110;2023-02-22T03:55:02;1.20;;;0.80;;
73239;SDS011;61452;40.054;4.110;2023-02-22T04:00:12;1.15;;;0.77;;
73239;SDS011;61452;40.054;4.110;2023-02-22T04:05:19;1.40;;;0.60;;
73239;SDS011;61452;40.054;4.110;2023-02-22T04:10:21;0.90;;;0.80;;
73239;SDS011;61452;40.054;4.110;2023-02-22T04:15:24;1.58;;;0.88;;
73239;SDS011;61452;40.054;4.110;2023-02-22T04:20:33;0.95;;;0.73;;
73239;SDS011;61452;40.054;4.110;2023-02-22T04:25:42;2.15;;;1.05;;
73239;SDS011;61452;40.054;4.110;2023-02-22T04:30:45;1.50;;;0.88;;
73239;SDS011;61452;40.054;4.110;2023-02-22T04:35:50;1.33;;;0.80;;
73239;SDS011;61452;40.054;4.110;2023-02-22T04:40:52;1.33;;;0.75;;
73239;SDS011;61452;40.054;4.110;2023-02-22T04:45:55;1.30;;;0.88;;
73239;SDS011;61452;40.054;4.110;2023-02-22T04:50:57;1.30;;;0.82;;
73239;SDS011;61452;40.054;4.110;2023-02-22T04:56:02;1.23;;;1.10;;
73239;SDS011;61452;40.054;4.110;2023-02-22T05:01:05;1.10;;;0.90;;
73239;SDS011;61452;40.054;4.110;2023-02-22T05:06:07;1.35;;;0.77;;
73239;SDS011;61452;40.054;4.110;2023-02-22T05:11:09;1.30;;;0.88;;
73239;SDS011;61452;40.054;4.110;2023-02-22T05:16:12;1.17;;;0.90;;
73239;SDS011;61452;40.054;4.110;2023-02-22T05:21:14;1.35;;;0.90;;
73239;SDS011;61452;40.054;4.110;2023-02-22T05:26:17;1.45;;;1.10;;
73239;SDS011;61452;40.054;4.110;2023-02-22T05:31:19;1.60;;;0.95;;
73239;SDS011;61452;40.054;4.110;2023-02-22T05:36:22;1.23;;;0.90;;
73239;SDS011;61452;40.054;4.110;2023-02-22T05:41:24;1.23;;;0.75;;
73239;SDS011;61452;40.054;4.110;2023-02-22T05:46:26;0.93;;;0.77;;
73239;SDS011;61452;40.054;4.110;2023-02-22T05:51:28;1.20;;;0.80;;
73239;SDS011;61452;40.054;4.110;2023-02-22T05:56:30;1.83;;;1.02;;
73239;SDS011;61452;40.054;4.110;2023-02-22T06:01:33;1.60;;;0.85;;
73239;SDS011;61452;40.054;4.110;2023-02-22T06:06:35;1.30;;;1.00;;
73239;SDS011;61452;40.054;4.110;2023-02-22T06:11:37;1.33;;;0.88;;
73239;SDS011;61452;40.054;4.110;2023-02-22T06:16:39;1.83;;;1.05;;
73239;SDS011;61452;40.054;4.110;2023-02-22T06:21:47;1.17;;;0.82;;
73239;SDS011;61452;40.054;4.110;2023-02-22T06:26:54;1.38;;;0.88;;
73239;SDS011;61452;40.054;4.110;2023-02-22T06:31:58;1.42;;;0.90;;
73239;SDS011;61452;40.054;4.110;2023-02-22T06:37:00;1.60;;;0.95;;
73239;SDS011;61452;40.054;4.110;2023-02-22T06:42:02;1.20;;;0.75;;
73239;SDS011;61452;40.054;4.110;2023-02-22T06:47:04;1.73;;;1.05;;
73239;SDS011;61452;40.054;4.110;2023-02-22T06:52:07;1.75;;;1.13;;
73239;SDS011;61452;40.054;4.110;2023-02-22T06:57:10;1.33;;;1.00;;
73239;SDS011;61452;40.054;4.110;2023-02-22T07:02:12;1.75;;;1.02;;
73239;SDS011;61452;40.054;4.110;2023-02-22T07:07:15;1.80;;;1.15;;
73239;SDS011;61452;40.054;4.110;2023-02-22T07:12:17;1.52;;;0.85;;
73239;SDS011;61452;40.054;4.110;2023-02-22T07:17:19;1.85;;;1.20;;
73239;SDS011;61452;40.054;4.110;2023-02-22T07:22:21;1.67;;;1.10;;
73239;SDS011;61452;40.054;4.110;2023-02-22T07:27:23;2.03;;;1.10;;
73239;SDS011;61452;40.054;4.110;2023-02-22T07:32:26;1.35;;;1.00;;
73239;SDS011;61452;40.054;4.110;2023-02-22T07:37:28;1.50;;;0.93;;
73239;SDS011;61452;40.054;4.110;2023-02-22T07:42:30;1.02;;;0.80;;
73239;SDS011;61452;40.054;4.110;2023-02-22T07:47:33;1.58;;;1.00;;
73239;SDS011;61452;40.054;4.110;2023-02-22T07:52:35;1.38;;;0.98;;
73239;SDS011;61452;40.054;4.110;2023-02-22T07:57:37;1.35;;;1.10;;
73239;SDS011;61452;40.054;4.110;2023-02-22T08:02:40;1.92;;;1.30;;
73239;SDS011;61452;40.054;4.110;2023-02-22T08:07:43;1.08;;;0.90;;
73239;SDS011;61452;40.054;4.110;2023-02-22T08:12:45;1.35;;;1.02;;
73239;SDS011;61452;40.054;4.110;2023-02-22T08:17:47;1.83;;;1.15;;
73239;SDS011;61452;40.054;4.110;2023-02-22T08:22:50;1.55;;;0.82;;
73239;SDS011;61452;40.054;4.110;2023-02-22T08:27:55;1.83;;;1.10;;
73239;SDS011;61452;40.054;4.110;2023-02-22T08:33:00;1.30;;;0.90;;
73239;SDS011;61452;40.054;4.110;2023-02-22T08:38:04;1.40;;;0.95;;
73239;SDS011;61452;40.054;4.110;2023-02-22T08:43:07;1.10;;;0.85;;
73239;SDS011;61452;40.054;4.110;2023-02-22T08:48:09;1.30;;;1.05;;
73239;SDS011;61452;40.054;4.110;2023-02-22T08:53:12;1.02;;;0.93;;
73239;SDS011;61452;40.054;4.110;2023-02-22T08:58:15;1.48;;;0.93;;
73239;SDS011;61452;40.054;4.110;2023-02-22T09:03:17;1.75;;;1.10;;
73239;SDS011;61452;40.054;4.110;2023-02-22T09:08:20;1.27;;;1.00;;
73239;SDS011;61452;40.054;4.110;2023-02-22T09:13:22;2.03;;;1.05;;
73239;SDS011;61452;40.054;4.110;2023-02-22T09:18:25;1.80;;;1.15;;
73239;SDS011;61452;40.054;4.110;2023-02-22T09:23:43;1.42;;;0.85;;
73239;SDS011;61452;40.054;4.110;2023-02-22T09:28:51;1.33;;;0.90;;
73239;SDS011;61452;40.054;4.110;2023-02-22T09:33:53;1.10;;;0.73;;
73239;SDS011;61452;40.054;4.110;2023-02-22T09:38:55;1.35;;;0.90;;
73239;SDS011;61452;40.054;4.110;2023-02-22T09:49:36;1.60;;;1.00;;
73239;SDS011;61452;40.054;4.110;2023-02-22T10:00:21;2.13;;;1.17;;
73239;SDS011;61452;40.054;4.110;2023-02-22T10:05:31;1.30;;;0.95;;
73239;SDS011;61452;40.054;4.110;2023-02-22T10:10:40;1.40;;;0.95;;
73239;SDS011;61452;40.054;4.110;2023-02-22T10:16:05;1.45;;;0.90;;
73239;SDS011;61452;40.054;4.110;2023-02-22T10:26:34;1.65;;;1.10;;
73239;SDS011;61452;40.054;4.110;2023-02-22T10:31:40;2.15;;;1.10;;
73239;SDS011;61452;40.054;4.110;2023-02-22T10:36:47;1.55;;;1.27;;
73239;SDS011;61452;40.054;4.110;2023-02-22T10:41:52;1.95;;;0.90;;
73239;SDS011;61452;40.054;4.110;2023-02-22T10:46:58;1.50;;;1.00;;
73239;SDS011;61452;40.054;4.110;2023-02-22T10:52:03;2.58;;;1.20;;
73239;SDS011;61452;40.054;4.110;2023-02-22T10:57:11;1.30;;;1.00;;
73239;SDS011;61452;40.054;4.110;2023-02-22T11:12:39;1.83;;;1.20;;
73239;SDS011;61452;40.054;4.110;2023-02-22T11:17:51;1.75;;;1.15;;
73239;SDS011;61452;40.054;4.110;2023-02-22T11:22:57;1.60;;;1.10;;
73239;SDS011;61452;40.054;4.110;2023-02-22T11:28:13;2.17;;;1.20;;
73239;SDS011;61452;40.054;4.110;2023-02-22T11:33:37;1.65;;;1.02;;
73239;SDS011;61452;40.054;4.110;2023-02-22T11:38:40;1.40;;;1.00;;
73239;SDS011;61452;40.054;4.110;2023-02-22T11:44:10;1.73;;;1.35;;
73239;SDS011;61452;40.054;4.110;2023-02-22T11:49:15;1.42;;;1.17;;
73239;SDS011;61452;40.054;4.110;2023-02-22T11:59:54;2.10;;;1.63;;
73239;SDS011;61452;40.054;4.110;2023-02-22T12:16:37;2.17;;;1.42;;
73239;SDS011;61452;40.054;4.110;2023-02-22T12:21:59;1.95;;;1.30;;
73239;SDS011;61452;40.054;4.110;2023-02-22T12:27:19;2.22;;;1.63;;
73239;SDS011;61452;40.054;4.110;2023-02-22T12:53:39;2.42;;;1.50;;
73239;SDS011;61452;40.054;4.110;2023-02-22T12:58:50;1.90;;;1.20;;
73239;SDS011;61452;40.054;4.110;2023-02-22T13:03:57;2.25;;;1.42;;
73239;SDS011;61452;40.054;4.110;2023-02-22T13:26:22;2.15;;;1.40;;
73239;SDS011;61452;40.054;4.110;2023-02-22T13:37:16;2.63;;;1.60;;
73239;SDS011;61452;40.054;4.110;2023-02-22T13:48:01;2.45;;;1.88;;
73239;SDS011;61452;40.054;4.110;2023-02-22T13:53:23;2.50;;;1.90;;
73239;SDS011;61452;40.054;4.110;2023-02-22T13:58:28;2.55;;;1.85;;
73239;SDS011;61452;40.054;4.110;2023-02-22T14:08:37;2.90;;;1.90;;
73239;SDS011;61452;40.054;4.110;2023-02-22T14:14:15;7.15;;;2.40;;
73239;SDS011;61452;40.054;4.110;2023-02-22T14:19:12;3.15;;;2.10;;
73239;SDS011;61452;40.054;4.110;2023-02-22T14:24:23;4.10;;;2.10;;
73239;SDS011;61452;40.054;4.110;2023-02-22T14:29:25;3.20;;;2.15;;
73239;SDS011;61452;40.054;4.110;2023-02-22T14:34:44;5.22;;;2.20;;
73239;SDS011;61452;40.054;4.110;2023-02-22T14:39:56;3.85;;;2.33;;
73239;SDS011;61452;40.054;4.110;2023-02-22T14:45:19;3.03;;;2.30;;
73239;SDS011;61452;40.054;4.110;2023-02-22T14:50:40;3.13;;;2.22;;
73239;SDS011;61452;40.054;4.110;2023-02-22T14:56:02;2.88;;;2.15;;
73239;SDS011;61452;40.054;4.110;2023-02-22T15:01:42;3.58;;;2.65;;
73239;SDS011;61452;40.054;4.110;2023-02-22T15:06:59;3.30;;;2.50;;
73239;SDS011;61452;40.054;4.110;2023-02-22T15:12:10;4.57;;;2.40;;
73239;SDS011;61452;40.054;4.110;2023-02-22T15:17:19;3.00;;;2.47;;
73239;SDS011;61452;40.054;4.110;2023-02-22T15:22:34;5.15;;;2.45;;
73239;SDS011;61452;40.054;4.110;2023-02-22T15:27:37;3.78;;;2.72;;
73239;SDS011;61452;40.054;4.110;2023-02-22T15:32:46;4.13;;;2.45;;
73239;SDS011;61452;40.054;4.110;2023-02-22T15:43:20;3.80;;;2.47;;
73239;SDS011;61452;40.054;4.110;2023-02-22T15:48:29;3.97;;;2.35;;
73239;SDS011;61452;40.054;4.110;2023-02-22T15:53:37;3.40;;;2.40;;
73239;SDS011;61452;40.054;4.110;2023-02-22T15:58:41;3.88;;;2.50;;
73239;SDS011;61452;40.054;4.110;2023-02-22T16:03:49;3.65;;;2.33;;
73239;SDS011;61452;40.054;4.110;2023-02-22T16:08:55;3.55;;;2.40;;
73239;SDS011;61452;40.054;4.110;2023-02-22T16:19:33;4.22;;;2.40;;
73239;SDS011;61452;40.054;4.110;2023-02-22T16:24:43;3.70;;;2.38;;
73239;SDS011;61452;40.054;4.110;2023-02-22T16:30:02;3.42;;;2.58;;
73239;SDS011;61452;40.054;4.110;2023-02-22T16:40:33;3.05;;;2.28;;
73239;SDS011;61452;40.054;4.110;2023-02-22T16:45:45;3.53;;;2.35;;
73239;SDS011;61452;40.054;4.110;2023-02-22T16:50:47;4.13;;;2.38;;
73239;SDS011;61452;40.054;4.110;2023-02-22T16:55:53;3.63;;;2.45;;
73239;SDS011;61452;40.054;4.110;2023-02-22T17:01:01;2.92;;;2.33;;
73239;SDS011;61452;40.054;4.110;2023-02-22T17:06:03;3.58;;;2.40;;
73239;SDS011;61452;40.054;4.110;2023-02-22T17:11:06;3.20;;;2.60;;
73239;SDS011;61452;40.054;4.110;2023-02-22T17:16:12;3.13;;;2.25;;
73239;SDS011;61452;40.054;4.110;2023-02-22T17:21:15;4.28;;;2.00;;
73239;SDS011;61452;40.054;4.110;2023-02-22T17:26:17;3.58;;;2.58;;
73239;SDS011;61452;40.054;4.110;2023-02-22T17:31:20;5.18;;;2.40;;
73239;SDS011;61452;40.054;4.110;2023-02-22T17:36:27;3.03;;;2.25;;
73239;SDS011;61452;40.054;4.110;2023-02-22T17:41:30;3.50;;;2.40;;
73239;SDS011;61452;40.054;4.110;2023-02-22T17:46:33;3.97;;;2.38;;
73239;SDS011;61452;40.054;4.110;2023-02-22T17:56:39;3.50;;;2.53;;
73239;SDS011;61452;40.054;4.110;2023-02-22T18:01:43;3.20;;;2.28;;
73239;SDS011;61452;40.054;4.110;2023-02-22T18:06:45;3.60;;;2.20;;
73239;SDS011;61452;40.054;4.110;2023-02-22T18:11:47;2.75;;;2.20;;
73239;SDS011;61452;40.054;4.110;2023-02-22T18:16:49;3.75;;;2.30;;
73239;SDS011;61452;40.054;4.110;2023-02-22T18:21:51;3.33;;;2.30;;
73239;SDS011;61452;40.054;4.110;2023-02-22T18:26:53;3.60;;;2.25;;
73239;SDS011;61452;40.054;4.110;2023-02-22T18:31:56;2.80;;;2.03;;
73239;SDS011;61452;40.054;4.110;2023-02-22T18:36:58;2.78;;;2.35;;
73239;SDS011;61452;40.054;4.110;2023-02-22T18:42:00;3.35;;;2.03;;
73239;SDS011;61452;40.054;4.110;2023-02-22T18:47:02;3.15;;;1.80;;
73239;SDS011;61452;40.054;4.110;2023-02-22T18:52:04;2.42;;;2.15;;
73239;SDS011;61452;40.054;4.110;2023-02-22T18:57:07;3.08;;;2.00;;
73239;SDS011;61452;40.054;4.110;2023-02-22T19:02:13;2.75;;;2.13;;
73239;SDS011;61452;40.054;4.110;2023-02-22T19:07:18;3.38;;;2.10;;
73239;SDS011;61452;40.054;4.110;2023-02-22T19:12:21;2.58;;;2.00;;
73239;SDS011;61452;40.054;4.110;2023-02-22T19:17:24;2.60;;;2.17;;
73239;SDS011;61452;40.054;4.110;2023-02-22T19:22:27;3.30;;;1.98;;
73239;SDS011;61452;40.054;4.110;2023-02-22T19:27:33;3.10;;;2.30;;
73239;SDS011;61452;40.054;4.110;2023-02-22T19:32:36;2.47;;;2.03;;
73239;SDS011;61452;40.054;4.110;2023-02-22T19:37:38;2.58;;;2.10;;
73239;SDS011;61452;40.054;4.110;2023-02-22T19:42:40;2.72;;;2.00;;
73239;SDS011;61452;40.054;4.110;2023-02-22T19:47:46;3.15;;;2.30;;
73239;SDS011;61452;40.054;4.110;2023-02-22T19:52:49;3.42;;;2.20;;
73239;SDS011;61452;40.054;4.110;2023-02-22T19:57:51;2.80;;;2.20;;
73239;SDS011;61452;40.054;4.110;2023-02-22T20:02:56;2.55;;;2.13;;
73239;SDS011;61452;40.054;4.110;2023-02-22T20:08:06;2.97;;;2.20;;
73239;SDS011;61452;40.054;4.110;2023-02-22T20:13:09;2.80;;;2.20;;
73239;SDS011;61452;40.054;4.110;2023-02-22T20:18:12;2.90;;;2.40;;
73239;SDS011;61452;40.054;4.110;2023-02-22T20:23:14;3.55;;;2.13;;
73239;SDS011;61452;40.054;4.110;2023-02-22T20:28:16;3.00;;;2.10;;
73239;SDS011;61452;40.054;4.110;2023-02-22T20:33:19;2.97;;;1.85;;
73239;SDS011;61452;40.054;4.110;2023-02-22T20:38:22;2.83;;;1.98;;
73239;SDS011;61452;40.054;4.110;2023-02-22T20:43:24;2.50;;;2.03;;
73239;SDS011;61452;40.054;4.110;2023-02-22T20:48:26;3.33;;;2.30;;
73239;SDS011;61452;40.054;4.110;2023-02-22T20:53:29;3.10;;;2.22;;
73239;SDS011;61452;40.054;4.110;2023-02-22T20:58:31;2.78;;;2.10;;
73239;SDS011;61452;40.054;4.110;2023-02-22T21:03:34;2.35;;;1.70;;
73239;SDS011;61452;40.054;4.110;2023-02-22T21:08:36;2.38;;;1.90;;
73239;SDS011;61452;40.054;4.110;2023-02-22T21:13:39;3.25;;;2.33;;
73239;SDS011;61452;40.054;4.110;2023-02-22T21:18:41;2.55;;;2.00;;
73239;SDS011;61452;40.054;4.110;2023-02-22T21:23:46;1.92;;;1.73;;
73239;SDS011;61452;40.054;4.110;2023-02-22T21:28:50;2.90;;;1.90;;
73239;SDS011;61452;40.054;4.110;2023-02-22T21:33:53;2.38;;;2.08;;
73239;SDS011;61452;40.054;4.110;2023-02-22T21:38:58;2.25;;;2.00;;
73239;SDS011;61452;40.054;4.110;2023-02-22T21:44:01;3.65;;;2.35;;
73239;SDS011;61452;40.054;4.110;2023-02-22T21:49:04;3.13;;;2.17;;
73239;SDS011;61452;40.054;4.110;2023-02-22T21:54:07;2.55;;;2.10;;
73239;SDS011;61452;40.054;4.110;2023-02-22T21:59:12;2.42;;;2.03;;
73239;SDS011;61452;40.054;4.110;2023-02-22T22:04:23;2.53;;;1.80;;
73239;SDS011;61452;40.054;4.110;2023-02-22T22:09:29;3.22;;;2.10;;
73239;SDS011;61452;40.054;4.110;2023-02-22T22:14:37;2.53;;;2.15;;
73239;SDS011;61452;40.054;4.110;2023-02-22T22:19:40;3.03;;;1.90;;
73239;SDS011;61452;40.054;4.110;2023-02-22T22:24:45;3.22;;;2.15;;
73239;SDS011;61452;40.054;4.110;2023-02-22T22:29:47;2.47;;;1.77;;
73239;SDS011;61452;40.054;4.110;2023-02-22T22:34:49;2.38;;;1.80;;
73239;SDS011;61452;40.054;4.110;2023-02-22T22:39:52;3.20;;;2.20;;
73239;SDS011;61452;40.054;4.110;2023-02-22T22:45:05;2.20;;;1.88;;
73239;SDS011;61452;40.054;4.110;2023-02-22T22:50:13;2.50;;;2.03;;
73239;SDS011;61452;40.054;4.110;2023-02-22T22:55:26;2.50;;;2.00;;
73239;SDS011;61452;40.054;4.110;2023-02-22T23:00:29;3.17;;;2.40;;
73239;SDS011;61452;40.054;4.110;2023-02-22T23:05:35;1.92;;;1.73;;
73239;SDS011;61452;40.054;4.110;2023-02-22T23:10:39;3.03;;;2.00;;
73239;SDS011;61452;40.054;4.110;2023-02-22T23:15:42;2.08;;;1.75;;
73239;SDS011;61452;40.054;4.110;2023-02-22T23:20:48;2.90;;;1.70;;
73239;SDS011;61452;40.054;4.110;2023-02-22T23:31:13;2.53;;;2.22;;
73239;SDS011;61452;40.054;4.110;2023-02-22T23:36:17;3.15;;;2.50;;
73239;SDS011;61452;40.054;4.110;2023-02-22T23:41:20;2.72;;;2.25;;
73239;SDS011;61452;40.054;4.110;2023-02-22T23:46:25;2.90;;;1.83;;
73239;SDS011;61452;40.054;4.110;2023-02-22T23:51:33;2.70;;;1.83;;
73239;SDS011;61452;40.054;4.110;2023-02-22T23:56:42;2.70;;;1.83;;
